sensor_id;sensor_type;location;lat;lon;timestamp;pressure;altitude;pressure_sealevel;temperature;humidity
22440;BME280;11387;51.612;7.210;2022-08-30T00:00:15;101215.63;;;17.16;67.80
22440;BME280;11387;51.612;7.210;2022-08-30T00:03:12;101211.72;;;17.17;68.01
22440;BME280;11387;51.612;7.210;2022-08-30T00:05:42;101216.00;;;17.06;68.25
22440;BME280;11387;51.612;7.210;2022-08-30T00:08:11;101225.59;;;17.08;68.21
22440;BME280;11387;51.612;7.210;2022-08-30T00:10:39;101210.44;;;17.14;67.86
22440;BME280;11387;51.612;7.210;2022-08-30T00:13:08;101212.38;;;17.14;68.10
22440;BME280;11387;51.612;7.210;2022-08-30T00:15:39;101204.41;;;17.21;67.55
22440;BME280;11387;51.612;7.210;2022-08-30T00:18:08;101198.88;;;17.12;67.98
22440;BME280;11387;51.612;7.210;2022-08-30T00:20:36;101209.16;;;17.12;67.86
22440;BME280;11387;51.612;7.210;2022-08-30T00:23:04;101205.59;;;17.11;68.01
22440;BME280;11387;51.612;7.210;2022-08-30T00:25:33;101204.13;;;17.05;68.18
22440;BME280;11387;51.612;7.210;2022-08-30T00:28:01;101195.84;;;16.97;68.51
22440;BME280;11387;51.612;7.210;2022-08-30T00:30:29;101191.28;;;16.83;68.81
22440;BME280;11387;51.612;7.210;2022-08-30T00:32:58;101200.59;;;16.79;69.05
22440;BME280;11387;51.612;7.210;2022-08-30T00:35:26;101196.34;;;16.73;69.23
22440;BME280;11387;51.612;7.210;2022-08-30T00:37:54;101195.38;;;16.77;69.27
22440;BME280;11387;51.612;7.210;2022-08-30T00:40:22;101201.22;;;16.76;69.17
22440;BME280;11387;51.612;7.210;2022-08-30T00:42:54;101199.91;;;16.82;68.99
22440;BME280;11387;51.612;7.210;2022-08-30T00:45:27;101202.69;;;16.73;69.32
22440;BME280;11387;51.612;7.210;2022-08-30T00:47:56;101198.63;;;16.71;69.38
22440;BME280;11387;51.612;7.210;2022-08-30T00:50:28;101197.31;;;16.68;69.45
22440;BME280;11387;51.612;7.210;2022-08-30T00:52:59;101195.38;;;16.69;69.76
22440;BME280;11387;51.612;7.210;2022-08-30T00:55:28;101192.78;;;16.72;69.40
22440;BME280;11387;51.612;7.210;2022-08-30T00:57:59;101195.88;;;16.79;69.07
22440;BME280;11387;51.612;7.210;2022-08-30T01:00:30;101205.75;;;16.89;68.86
22440;BME280;11387;51.612;7.210;2022-08-30T01:02:58;101214.03;;;16.89;68.91
22440;BME280;11387;51.612;7.210;2022-08-30T01:05:28;101202.50;;;16.96;68.74
22440;BME280;11387;51.612;7.210;2022-08-30T01:07:56;101206.09;;;16.96;68.36
22440;BME280;11387;51.612;7.210;2022-08-30T01:10:24;101204.47;;;16.95;68.57
22440;BME280;11387;51.612;7.210;2022-08-30T01:12:51;101200.22;;;16.89;68.78
22440;BME280;11387;51.612;7.210;2022-08-30T01:15:19;101204.47;;;16.95;68.63
22440;BME280;11387;51.612;7.210;2022-08-30T01:17:47;101212.09;;;16.90;68.68
22440;BME280;11387;51.612;7.210;2022-08-30T01:20:20;101208.03;;;16.87;68.90
22440;BME280;11387;51.612;7.210;2022-08-30T01:23:05;101211.78;;;16.82;68.77
22440;BME280;11387;51.612;7.210;2022-08-30T01:25:35;101200.72;;;16.82;69.03
22440;BME280;11387;51.612;7.210;2022-08-30T01:28:05;101201.72;;;16.78;69.19
22440;BME280;11387;51.612;7.210;2022-08-30T01:30:34;101205.13;;;16.75;69.26
22440;BME280;11387;51.612;7.210;2022-08-30T01:33:06;101205.09;;;16.58;69.83
22440;BME280;11387;51.612;7.210;2022-08-30T01:35:43;101208.00;;;16.52;70.20
22440;BME280;11387;51.612;7.210;2022-08-30T01:38:12;101207.03;;;16.57;69.70
22440;BME280;11387;51.612;7.210;2022-08-30T01:40:41;101204.28;;;16.48;70.17
22440;BME280;11387;51.612;7.210;2022-08-30T01:43:09;101200.84;;;16.34;70.61
22440;BME280;11387;51.612;7.210;2022-08-30T01:45:37;101202.47;;;16.18;71.32
22440;BME280;11387;51.612;7.210;2022-08-30T01:48:06;101205.06;;;16.14;71.31
22440;BME280;11387;51.612;7.210;2022-08-30T01:50:34;101209.59;;;16.10;71.48
22440;BME280;11387;51.612;7.210;2022-08-30T01:53:05;101212.66;;;16.09;71.56
22440;BME280;11387;51.612;7.210;2022-08-30T01:55:40;101219.97;;;16.05;71.82
22440;BME280;11387;51.612;7.210;2022-08-30T01:58:08;101214.44;;;16.05;71.94
22440;BME280;11387;51.612;7.210;2022-08-30T02:00:36;101218.69;;;16.11;71.67
22440;BME280;11387;51.612;7.210;2022-08-30T02:03:05;101222.59;;;16.10;71.70
22440;BME280;11387;51.612;7.210;2022-08-30T02:05:33;101217.06;;;16.10;71.61
22440;BME280;11387;51.612;7.210;2022-08-30T02:08:01;101229.91;;;16.14;71.54
22440;BME280;11387;51.612;7.210;2022-08-30T02:10:29;101224.56;;;16.18;71.46
22440;BME280;11387;51.612;7.210;2022-08-30T02:12:59;101226.00;;;16.24;71.26
22440;BME280;11387;51.612;7.210;2022-08-30T02:15:26;101226.66;;;16.12;71.45
22440;BME280;11387;51.612;7.210;2022-08-30T02:17:54;101230.19;;;16.04;71.70
22440;BME280;11387;51.612;7.210;2022-08-30T02:20:22;101219.63;;;15.98;71.96
22440;BME280;11387;51.612;7.210;2022-08-30T02:22:50;101228.22;;;15.88;72.46
22440;BME280;11387;51.612;7.210;2022-08-30T02:25:17;101221.88;;;15.96;72.34
22440;BME280;11387;51.612;7.210;2022-08-30T02:27:46;101214.59;;;16.00;72.10
22440;BME280;11387;51.612;7.210;2022-08-30T02:30:16;101218.34;;;16.04;71.75
22440;BME280;11387;51.612;7.210;2022-08-30T02:32:44;101208.94;;;16.05;71.90
22440;BME280;11387;51.612;7.210;2022-08-30T02:35:12;101201.09;;;15.98;71.82
22440;BME280;11387;51.612;7.210;2022-08-30T02:37:40;101205.00;;;15.89;72.41
22440;BME280;11387;51.612;7.210;2022-08-30T02:40:09;101210.63;;;15.75;72.76
22440;BME280;11387;51.612;7.210;2022-08-30T02:42:37;101208.31;;;15.68;73.18
22440;BME280;11387;51.612;7.210;2022-08-30T02:45:07;101208.81;;;15.70;73.04
22440;BME280;11387;51.612;7.210;2022-08-30T02:47:36;101211.38;;;15.58;73.43
22440;BME280;11387;51.612;7.210;2022-08-30T02:50:10;101215.78;;;15.68;73.31
22440;BME280;11387;51.612;7.210;2022-08-30T02:52:40;101206.47;;;15.55;73.67
22440;BME280;11387;51.612;7.210;2022-08-30T02:55:10;101202.38;;;15.53;73.63
22440;BME280;11387;51.612;7.210;2022-08-30T02:57:38;101198.50;;;15.54;73.76
22440;BME280;11387;51.612;7.210;2022-08-30T03:00:08;101196.38;;;15.50;73.80
22440;BME280;11387;51.612;7.210;2022-08-30T03:02:38;101193.56;;;15.42;74.16
22440;BME280;11387;51.612;7.210;2022-08-30T03:05:06;101189.44;;;15.31;74.68
22440;BME280;11387;51.612;7.210;2022-08-30T03:07:34;101190.13;;;15.28;74.79
22440;BME280;11387;51.612;7.210;2022-08-30T03:10:03;101199.41;;;15.09;75.49
22440;BME280;11387;51.612;7.210;2022-08-30T03:12:30;101198.38;;;15.05;75.65
22440;BME280;11387;51.612;7.210;2022-08-30T03:15:00;101201.28;;;15.00;76.02
22440;BME280;11387;51.612;7.210;2022-08-30T03:17:27;101201.53;;;14.90;76.22
22440;BME280;11387;51.612;7.210;2022-08-30T03:19:57;101202.78;;;14.84;76.51
22440;BME280;11387;51.612;7.210;2022-08-30T03:22:26;101198.28;;;14.88;76.56
22440;BME280;11387;51.612;7.210;2022-08-30T03:24:54;101197.78;;;14.86;76.42
22440;BME280;11387;51.612;7.210;2022-08-30T03:27:23;101200.03;;;14.84;76.71
22440;BME280;11387;51.612;7.210;2022-08-30T03:29:51;101192.19;;;14.77;76.80
22440;BME280;11387;51.612;7.210;2022-08-30T03:32:19;101195.22;;;14.67;77.24
22440;BME280;11387;51.612;7.210;2022-08-30T03:34:46;101196.00;;;14.68;77.38
22440;BME280;11387;51.612;7.210;2022-08-30T03:37:15;101192.63;;;14.71;77.65
22440;BME280;11387;51.612;7.210;2022-08-30T03:39:43;101191.81;;;14.70;77.68
22440;BME280;11387;51.612;7.210;2022-08-30T03:42:11;101190.19;;;14.69;77.57
22440;BME280;11387;51.612;7.210;2022-08-30T03:44:41;101189.03;;;14.62;77.75
22440;BME280;11387;51.612;7.210;2022-08-30T03:47:09;101182.69;;;14.61;77.70
22440;BME280;11387;51.612;7.210;2022-08-30T03:49:37;101191.28;;;14.60;77.93
22440;BME280;11387;51.612;7.210;2022-08-30T03:52:12;101194.88;;;14.69;77.54
22440;BME280;11387;51.612;7.210;2022-08-30T03:54:42;101194.88;;;14.69;77.71
22440;BME280;11387;51.612;7.210;2022-08-30T03:57:10;101194.88;;;14.69;77.82
22440;BME280;11387;51.612;7.210;2022-08-30T03:59:49;101196.59;;;14.78;77.26
22440;BME280;11387;51.612;7.210;2022-08-30T04:02:17;101199.59;;;14.91;76.89
22440;BME280;11387;51.612;7.210;2022-08-30T04:04:45;101207.88;;;14.91;77.08
22440;BME280;11387;51.612;7.210;2022-08-30T04:07:13;101210.81;;;14.94;76.83
22440;BME280;11387;51.612;7.210;2022-08-30T04:09:40;101212.44;;;14.95;76.64
22440;BME280;11387;51.612;7.210;2022-08-30T04:12:09;101209.31;;;14.88;76.97
22440;BME280;11387;51.612;7.210;2022-08-30T04:14:41;101216.06;;;14.82;77.02
22440;BME280;11387;51.612;7.210;2022-08-30T04:17:09;101214.44;;;14.81;77.18
22440;BME280;11387;51.612;7.210;2022-08-30T04:19:36;101212.81;;;14.80;77.21
22440;BME280;11387;51.612;7.210;2022-08-30T04:22:04;101219.75;;;14.77;77.33
22440;BME280;11387;51.612;7.210;2022-08-30T04:24:32;101214.25;;;14.77;77.59
22440;BME280;11387;51.612;7.210;2022-08-30T04:27:00;101225.44;;;14.81;77.38
22440;BME280;11387;51.612;7.210;2022-08-30T04:29:29;101225.06;;;14.74;77.38
22440;BME280;11387;51.612;7.210;2022-08-30T04:31:57;101214.94;;;14.61;78.36
22440;BME280;11387;51.612;7.210;2022-08-30T04:34:24;101221.16;;;14.53;78.46
22440;BME280;11387;51.612;7.210;2022-08-30T04:36:52;101221.59;;;14.46;78.74
22440;BME280;11387;51.612;7.210;2022-08-30T04:39:20;101219.66;;;14.46;78.82
22440;BME280;11387;51.612;7.210;2022-08-30T04:41:48;101215.88;;;14.42;79.19
22440;BME280;11387;51.612;7.210;2022-08-30T04:44:16;101220.66;;;14.51;78.54
22440;BME280;11387;51.612;7.210;2022-08-30T04:46:46;101212.91;;;14.39;78.97
22440;BME280;11387;51.612;7.210;2022-08-30T04:49:14;101212.09;;;14.38;79.18
22440;BME280;11387;51.612;7.210;2022-08-30T04:51:42;101213.22;;;14.37;79.38
22440;BME280;11387;51.612;7.210;2022-08-30T04:54:10;101221.09;;;14.30;79.55
22440;BME280;11387;51.612;7.210;2022-08-30T04:56:38;101226.72;;;14.25;79.70
22440;BME280;11387;51.612;7.210;2022-08-30T04:59:06;101226.97;;;14.37;79.41
22440;BME280;11387;51.612;7.210;2022-08-30T05:01:33;101227.63;;;14.34;79.47
22440;BME280;11387;51.612;7.210;2022-08-30T05:04:12;101219.97;;;14.31;79.82
22440;BME280;11387;51.612;7.210;2022-08-30T05:06:41;101234.97;;;14.25;79.87
22440;BME280;11387;51.612;7.210;2022-08-30T05:09:09;101242.31;;;14.30;79.81
22440;BME280;11387;51.612;7.210;2022-08-30T05:11:37;101243.22;;;14.25;80.06
22440;BME280;11387;51.612;7.210;2022-08-30T05:14:05;101250.34;;;14.26;79.94
22440;BME280;11387;51.612;7.210;2022-08-30T05:16:32;101244.94;;;14.35;79.58
22440;BME280;11387;51.612;7.210;2022-08-30T05:19:00;101239.63;;;14.38;79.38
22440;BME280;11387;51.612;7.210;2022-08-30T05:21:30;101241.88;;;14.36;79.68
22440;BME280;11387;51.612;7.210;2022-08-30T05:23:58;101244.22;;;14.43;79.51
22440;BME280;11387;51.612;7.210;2022-08-30T05:26:29;101241.06;;;14.49;78.90
22440;BME280;11387;51.612;7.210;2022-08-30T05:28:57;101252.19;;;14.44;79.31
22440;BME280;11387;51.612;7.210;2022-08-30T05:31:30;101250.84;;;14.56;78.86
22440;BME280;11387;51.612;7.210;2022-08-30T05:33:58;101252.91;;;14.72;78.34
22440;BME280;11387;51.612;7.210;2022-08-30T05:36:34;101251.59;;;14.70;78.62
22440;BME280;11387;51.612;7.210;2022-08-30T05:39:02;101259.75;;;14.75;78.42
22440;BME280;11387;51.612;7.210;2022-08-30T05:41:31;101258.50;;;14.81;78.13
22440;BME280;11387;51.612;7.210;2022-08-30T05:44:00;101259.91;;;14.92;77.72
22440;BME280;11387;51.612;7.210;2022-08-30T05:46:29;101259.91;;;14.92;77.74
22440;BME280;11387;51.612;7.210;2022-08-30T05:49:04;101262.72;;;15.01;77.38
22440;BME280;11387;51.612;7.210;2022-08-30T05:51:35;101271.06;;;15.09;77.11
22440;BME280;11387;51.612;7.210;2022-08-30T05:54:09;101257.97;;;15.15;76.99
22440;BME280;11387;51.612;7.210;2022-08-30T05:56:39;101256.09;;;15.24;76.65
22440;BME280;11387;51.612;7.210;2022-08-30T05:59:08;101256.59;;;15.26;76.61
22440;BME280;11387;51.612;7.210;2022-08-30T06:01:38;101259.03;;;15.28;76.57
22440;BME280;11387;51.612;7.210;2022-08-30T06:04:08;101268.53;;;15.44;76.07
22440;BME280;11387;51.612;7.210;2022-08-30T06:06:40;101268.22;;;15.45;75.95
22440;BME280;11387;51.612;7.210;2022-08-30T06:09:09;101261.50;;;15.60;75.44
22440;BME280;11387;51.612;7.210;2022-08-30T06:11:37;101267.13;;;15.55;75.60
22440;BME280;11387;51.612;7.210;2022-08-30T06:14:05;101263.97;;;15.70;75.05
22440;BME280;11387;51.612;7.210;2022-08-30T06:16:34;101270.13;;;15.67;75.13
22440;BME280;11387;51.612;7.210;2022-08-30T06:19:05;101268.00;;;15.64;75.35
22440;BME280;11387;51.612;7.210;2022-08-30T06:21:35;101270.88;;;15.81;75.08
22440;BME280;11387;51.612;7.210;2022-08-30T06:24:06;101276.91;;;15.92;74.35
22440;BME280;11387;51.612;7.210;2022-08-30T06:26:37;101278.69;;;15.97;74.48
22440;BME280;11387;51.612;7.210;2022-08-30T06:29:07;101283.13;;;16.06;73.77
22440;BME280;11387;51.612;7.210;2022-08-30T06:31:34;101281.41;;;16.19;73.63
22440;BME280;11387;51.612;7.210;2022-08-30T06:34:02;101279.03;;;16.43;72.76
22440;BME280;11387;51.612;7.210;2022-08-30T06:36:31;101280.03;;;16.65;71.79
22440;BME280;11387;51.612;7.210;2022-08-30T06:39:00;101286.06;;;16.84;71.61
22440;BME280;11387;51.612;7.210;2022-08-30T06:41:31;101283.97;;;16.90;70.88
22440;BME280;11387;51.612;7.210;2022-08-30T06:44:01;101289.66;;;17.10;70.08
22440;BME280;11387;51.612;7.210;2022-08-30T06:46:31;101290.94;;;17.22;69.75
22440;BME280;11387;51.612;7.210;2022-08-30T06:49:00;101288.44;;;17.46;69.02
22440;BME280;11387;51.612;7.210;2022-08-30T06:51:31;101286.31;;;17.60;68.09
22440;BME280;11387;51.612;7.210;2022-08-30T06:54:01;101284.16;;;17.74;68.15
22440;BME280;11387;51.612;7.210;2022-08-30T06:56:30;101280.03;;;17.98;66.80
22440;BME280;11387;51.612;7.210;2022-08-30T06:58:58;101282.75;;;17.68;67.50
22440;BME280;11387;51.612;7.210;2022-08-30T07:01:28;101272.16;;;17.62;68.17
22440;BME280;11387;51.612;7.210;2022-08-30T07:03:56;101279.22;;;17.33;69.16
22440;BME280;11387;51.612;7.210;2022-08-30T07:06:27;101268.25;;;17.54;68.54
22440;BME280;11387;51.612;7.210;2022-08-30T07:08:55;101264.78;;;17.74;68.05
22440;BME280;11387;51.612;7.210;2022-08-30T07:11:25;101271.38;;;17.44;68.67
22440;BME280;11387;51.612;7.210;2022-08-30T07:13:55;101267.38;;;17.79;67.89
22440;BME280;11387;51.612;7.210;2022-08-30T07:16:24;101269.91;;;18.02;66.72
22440;BME280;11387;51.612;7.210;2022-08-30T07:18:52;101275.84;;;18.21;66.17
22440;BME280;11387;51.612;7.210;2022-08-30T07:21:23;101271.72;;;17.98;66.93
22440;BME280;11387;51.612;7.210;2022-08-30T07:23:53;101273.84;;;18.30;65.91
22440;BME280;11387;51.612;7.210;2022-08-30T07:26:23;101280.31;;;19.05;63.88
22440;BME280;11387;51.612;7.210;2022-08-30T07:28:52;101278.97;;;20.26;60.01
22440;BME280;11387;51.612;7.210;2022-08-30T07:31:23;101273.19;;;20.96;57.21
22440;BME280;11387;51.612;7.210;2022-08-30T07:33:51;101268.69;;;22.41;53.38
22440;BME280;11387;51.612;7.210;2022-08-30T07:36:20;101274.78;;;23.59;50.00
22440;BME280;11387;51.612;7.210;2022-08-30T07:38:49;101273.03;;;23.97;48.57
22440;BME280;11387;51.612;7.210;2022-08-30T07:41:19;101265.50;;;22.59;51.77
22440;BME280;11387;51.612;7.210;2022-08-30T07:43:47;101272.16;;;23.93;48.14
22440;BME280;11387;51.612;7.210;2022-08-30T07:46:15;101275.50;;;24.25;47.89
22440;BME280;11387;51.612;7.210;2022-08-30T07:48:45;101275.41;;;25.67;43.97
22440;BME280;11387;51.612;7.210;2022-08-30T07:51:14;101284.66;;;24.78;46.57
22440;BME280;11387;51.612;7.210;2022-08-30T07:53:42;101278.38;;;25.51;44.48
22440;BME280;11387;51.612;7.210;2022-08-30T07:56:10;101273.88;;;26.87;41.28
22440;BME280;11387;51.612;7.210;2022-08-30T07:58:38;101280.59;;;27.79;40.12
22440;BME280;11387;51.612;7.210;2022-08-30T08:01:07;101279.81;;;28.25;38.51
22440;BME280;11387;51.612;7.210;2022-08-30T08:03:37;101276.94;;;27.61;39.44
22440;BME280;11387;51.612;7.210;2022-08-30T08:06:08;101279.00;;;28.28;38.18
22440;BME280;11387;51.612;7.210;2022-08-30T08:08:37;101281.78;;;27.71;39.20
22440;BME280;11387;51.612;7.210;2022-08-30T08:11:06;101282.19;;;28.44;37.70
22440;BME280;11387;51.612;7.210;2022-08-30T08:13:34;101286.69;;;29.40;36.37
22440;BME280;11387;51.612;7.210;2022-08-30T08:16:20;101289.84;;;29.56;35.39
22440;BME280;11387;51.612;7.210;2022-08-30T08:18:49;101280.13;;;26.62;41.02
22440;BME280;11387;51.612;7.210;2022-08-30T08:21:19;101277.44;;;29.36;36.93
22440;BME280;11387;51.612;7.210;2022-08-30T08:23:47;101285.31;;;31.30;32.51
22440;BME280;11387;51.612;7.210;2022-08-30T08:26:15;101290.94;;;30.66;33.39
22440;BME280;11387;51.612;7.210;2022-08-30T08:28:43;101290.81;;;29.17;35.53
22440;BME280;11387;51.612;7.210;2022-08-30T08:31:13;101287.50;;;29.37;35.32
22440;BME280;11387;51.612;7.210;2022-08-30T08:33:41;101284.91;;;28.87;36.26
22440;BME280;11387;51.612;7.210;2022-08-30T08:36:09;101282.88;;;28.98;36.09
22440;BME280;11387;51.612;7.210;2022-08-30T08:38:38;101286.66;;;29.47;35.34
22440;BME280;11387;51.612;7.210;2022-08-30T08:41:12;101282.16;;;28.69;37.10
22440;BME280;11387;51.612;7.210;2022-08-30T08:43:47;101285.34;;;27.50;39.13
22440;BME280;11387;51.612;7.210;2022-08-30T08:46:21;101284.19;;;27.69;38.66
22440;BME280;11387;51.612;7.210;2022-08-30T08:48:55;101285.28;;;28.96;36.10
22440;BME280;11387;51.612;7.210;2022-08-30T08:51:27;101291.91;;;30.48;33.76
22440;BME280;11387;51.612;7.210;2022-08-30T08:54:20;101297.69;;;31.13;32.92
22440;BME280;11387;51.612;7.210;2022-08-30T08:56:50;101294.28;;;31.52;32.46
22440;BME280;11387;51.612;7.210;2022-08-30T08:59:18;101291.38;;;32.36;31.15
22440;BME280;11387;51.612;7.210;2022-08-30T09:01:46;101286.41;;;30.34;34.03
22440;BME280;11387;51.612;7.210;2022-08-30T09:04:22;101284.19;;;28.44;36.84
22440;BME280;11387;51.612;7.210;2022-08-30T09:06:54;101290.13;;;28.96;36.87
22440;BME280;11387;51.612;7.210;2022-08-30T09:09:28;101280.56;;;28.50;37.01
22440;BME280;11387;51.612;7.210;2022-08-30T09:11:57;101282.19;;;27.66;38.61
22440;BME280;11387;51.612;7.210;2022-08-30T09:14:29;101289.34;;;26.63;40.32
22440;BME280;11387;51.612;7.210;2022-08-30T09:17:01;101287.84;;;28.05;37.87
22440;BME280;11387;51.612;7.210;2022-08-30T09:19:36;101295.75;;;27.43;38.91
22440;BME280;11387;51.612;7.210;2022-08-30T09:22:15;101282.19;;;27.70;38.26
22440;BME280;11387;51.612;7.210;2022-08-30T09:24:49;101292.31;;;29.47;35.28
22440;BME280;11387;51.612;7.210;2022-08-30T09:27:25;101285.72;;;28.84;35.93
22440;BME280;11387;51.612;7.210;2022-08-30T09:29:59;101282.97;;;28.52;36.98
22440;BME280;11387;51.612;7.210;2022-08-30T09:32:31;101286.91;;;28.97;35.95
22440;BME280;11387;51.612;7.210;2022-08-30T09:34:59;101284.25;;;29.49;35.20
22440;BME280;11387;51.612;7.210;2022-08-30T09:37:31;101284.50;;;30.24;34.09
22440;BME280;11387;51.612;7.210;2022-08-30T09:40:08;101281.00;;;30.88;32.63
22440;BME280;11387;51.612;7.210;2022-08-30T09:42:36;101282.69;;;31.46;31.87
22440;BME280;11387;51.612;7.210;2022-08-30T09:45:16;101284.88;;;30.67;32.15
22440;BME280;11387;51.612;7.210;2022-08-30T09:47:45;101283.34;;;31.54;31.32
22440;BME280;11387;51.612;7.210;2022-08-30T09:50:14;101282.84;;;31.90;29.99
22440;BME280;11387;51.612;7.210;2022-08-30T09:53:02;101283.25;;;31.88;30.34
22440;BME280;11387;51.612;7.210;2022-08-30T09:55:48;101276.66;;;29.94;33.70
22440;BME280;11387;51.612;7.210;2022-08-30T09:58:26;101279.59;;;29.10;34.99
22440;BME280;11387;51.612;7.210;2022-08-30T10:01:05;101266.22;;;29.91;33.62
22440;BME280;11387;51.612;7.210;2022-08-30T10:03:38;101272.41;;;31.83;30.25
22440;BME280;11387;51.612;7.210;2022-08-30T10:06:15;101264.72;;;33.33;28.41
22440;BME280;11387;51.612;7.210;2022-08-30T10:08:57;101267.84;;;29.89;32.83
22440;BME280;11387;51.612;7.210;2022-08-30T10:11:36;101271.72;;;30.09;32.85
22440;BME280;11387;51.612;7.210;2022-08-30T10:14:27;101274.59;;;29.43;34.65
22440;BME280;11387;51.612;7.210;2022-08-30T10:16:59;101263.00;;;29.30;34.42
22440;BME280;11387;51.612;7.210;2022-08-30T10:19:41;101269.00;;;31.11;31.71
22440;BME280;11387;51.612;7.210;2022-08-30T10:22:13;101268.19;;;33.93;27.94
22440;BME280;11387;51.612;7.210;2022-08-30T10:24:45;101260.31;;;33.12;27.84
22440;BME280;11387;51.612;7.210;2022-08-30T10:27:17;101259.31;;;32.16;29.83
22440;BME280;11387;51.612;7.210;2022-08-30T10:29:50;101256.97;;;34.02;27.47
22440;BME280;11387;51.612;7.210;2022-08-30T10:32:24;101256.50;;;34.52;26.06
22440;BME280;11387;51.612;7.210;2022-08-30T10:34:55;101248.69;;;32.67;28.92
22440;BME280;11387;51.612;7.210;2022-08-30T10:37:26;101250.56;;;32.54;28.57
22440;BME280;11387;51.612;7.210;2022-08-30T10:39:57;101244.09;;;32.53;28.71
22440;BME280;11387;51.612;7.210;2022-08-30T10:42:50;101249.22;;;34.93;25.83
22440;BME280;11387;51.612;7.210;2022-08-30T10:45:19;101246.34;;;35.72;24.46
22440;BME280;11387;51.612;7.210;2022-08-30T10:47:52;101247.41;;;34.99;24.58
22440;BME280;11387;51.612;7.210;2022-08-30T10:50:28;101242.94;;;37.12;22.82
22440;BME280;11387;51.612;7.210;2022-08-30T10:53:06;101246.75;;;34.66;25.19
22440;BME280;11387;51.612;7.210;2022-08-30T10:55:40;101241.31;;;33.81;26.76
22440;BME280;11387;51.612;7.210;2022-08-30T10:58:32;101243.16;;;34.78;25.20
22440;BME280;11387;51.612;7.210;2022-08-30T11:01:14;101239.28;;;36.59;23.05
22440;BME280;11387;51.612;7.210;2022-08-30T11:04:01;101242.69;;;38.54;21.13
22440;BME280;11387;51.612;7.210;2022-08-30T11:06:38;101228.72;;;40.69;19.00
22440;BME280;11387;51.612;7.210;2022-08-30T11:09:24;101236.06;;;40.55;18.78
22440;BME280;11387;51.612;7.210;2022-08-30T11:12:15;101242.88;;;38.51;20.58
22440;BME280;11387;51.612;7.210;2022-08-30T11:14:51;101241.94;;;36.75;22.47
22440;BME280;11387;51.612;7.210;2022-08-30T11:17:25;101232.97;;;33.90;26.03
22440;BME280;11387;51.612;7.210;2022-08-30T11:19:56;101230.94;;;37.48;21.79
22440;BME280;11387;51.612;7.210;2022-08-30T11:22:27;101229.47;;;37.43;22.16
22440;BME280;11387;51.612;7.210;2022-08-30T11:25:07;101233.78;;;35.95;23.14
22440;BME280;11387;51.612;7.210;2022-08-30T11:27:44;101239.97;;;37.16;22.56
22440;BME280;11387;51.612;7.210;2022-08-30T11:30:51;101230.28;;;37.44;21.98
22440;BME280;11387;51.612;7.210;2022-08-30T11:33:46;101234.59;;;38.53;20.53
22440;BME280;11387;51.612;7.210;2022-08-30T11:39:39;101225.34;;;34.90;24.16
22440;BME280;11387;51.612;7.210;2022-08-30T11:42:11;101228.88;;;34.94;24.00
22440;BME280;11387;51.612;7.210;2022-08-30T11:44:39;101223.44;;;37.10;22.15
22440;BME280;11387;51.612;7.210;2022-08-30T11:47:38;101231.38;;;32.41;26.92
22440;BME280;11387;51.612;7.210;2022-08-30T11:50:10;101225.88;;;36.47;22.88
22440;BME280;11387;51.612;7.210;2022-08-30T11:52:48;101225.03;;;34.14;24.64
22440;BME280;11387;51.612;7.210;2022-08-30T11:55:26;101224.63;;;34.28;25.01
22440;BME280;11387;51.612;7.210;2022-08-30T11:58:08;101225.94;;;34.69;24.77
22440;BME280;11387;51.612;7.210;2022-08-30T12:00:40;101220.28;;;33.62;25.61
22440;BME280;11387;51.612;7.210;2022-08-30T12:03:35;101211.66;;;33.13;26.59
22440;BME280;11387;51.612;7.210;2022-08-30T12:06:04;101206.56;;;32.69;26.97
22440;BME280;11387;51.612;7.210;2022-08-30T12:08:49;101208.31;;;33.19;26.34
22440;BME280;11387;51.612;7.210;2022-08-30T12:11:54;101210.25;;;33.22;26.42
22440;BME280;11387;51.612;7.210;2022-08-30T12:14:36;101207.50;;;33.54;26.06
22440;BME280;11387;51.612;7.210;2022-08-30T12:17:14;101211.41;;;33.60;25.10
22440;BME280;11387;51.612;7.210;2022-08-30T12:20:13;101204.66;;;33.87;25.12
22440;BME280;11387;51.612;7.210;2022-08-30T12:22:42;101197.75;;;34.33;24.68
22440;BME280;11387;51.612;7.210;2022-08-30T12:25:18;101201.03;;;34.31;25.01
22440;BME280;11387;51.612;7.210;2022-08-30T12:27:48;101199.97;;;34.83;24.60
22440;BME280;11387;51.612;7.210;2022-08-30T12:30:24;101194.91;;;34.74;24.54
22440;BME280;11387;51.612;7.210;2022-08-30T12:32:53;101189.81;;;36.31;23.14
22440;BME280;11387;51.612;7.210;2022-08-30T12:35:25;101183.97;;;37.49;21.53
22440;BME280;11387;51.612;7.210;2022-08-30T12:37:57;101181.22;;;35.11;24.07
22440;BME280;11387;51.612;7.210;2022-08-30T12:40:26;101185.84;;;33.44;26.39
22440;BME280;11387;51.612;7.210;2022-08-30T12:42:58;101189.09;;;33.26;26.50
22440;BME280;11387;51.612;7.210;2022-08-30T12:45:30;101184.53;;;33.81;25.96
22440;BME280;11387;51.612;7.210;2022-08-30T12:48:03;101180.41;;;34.98;24.30
22440;BME280;11387;51.612;7.210;2022-08-30T12:50:36;101176.34;;;36.75;22.29
22440;BME280;11387;51.612;7.210;2022-08-30T12:53:06;101172.75;;;37.15;22.03
22440;BME280;11387;51.612;7.210;2022-08-30T12:55:50;101181.34;;;34.53;24.54
22440;BME280;11387;51.612;7.210;2022-08-30T12:58:42;101172.91;;;35.17;24.28
22440;BME280;11387;51.612;7.210;2022-08-30T13:01:14;101176.53;;;34.79;24.30
22440;BME280;11387;51.612;7.210;2022-08-30T13:03:54;101171.09;;;35.23;23.96
22440;BME280;11387;51.612;7.210;2022-08-30T13:06:39;101162.63;;;34.10;25.38
22440;BME280;11387;51.612;7.210;2022-08-30T13:09:12;101169.88;;;33.50;26.24
22440;BME280;11387;51.612;7.210;2022-08-30T13:11:50;101168.25;;;33.17;26.19
22440;BME280;11387;51.612;7.210;2022-08-30T13:14:28;101161.34;;;32.62;26.74
22440;BME280;11387;51.612;7.210;2022-08-30T13:17:19;101162.09;;;32.26;27.52